Crystal Island — 3EZJ3 — position and weather

sailwx.info

Track history (hours):
 
Tides and Currents Weather Stations Pressure Air Temp Water Temp Dewpoint Dewpoint Depression Visibility Wind Speed Wind Dir Waves Ship Positions

Crystal Island

Last reported at 2016-May-27 17:34 UTC. Time now 2016-May-27 18:13 UTC.
Position N 36°27' E 014°38'.

Length 169 m; draft 7.4 m.

Type: Ship. MMSI: 372562000.

Date/timePositionNaut miles runAvg speedWind from/ knotsBaromVisibWave heightAir tempDewpointWater temp
2016-May-27 17:34N 36°27' E 014°38'1413.6
2016-May-27 16:34N 36°30' E 014°54'1414.0
2016-May-27 15:33N 36°37' E 015°09'1414.4
2016-May-27 14:33N 36°44' E 015°25'1413.6
2016-May-27 13:33N 36°55' E 015°36'1313.5
2016-May-27 12:33N 37°05' E 015°46'1413.6
2016-May-27 11:33N 37°15' E 015°57'2713.5
2016-May-27 09:32N 37°36' E 016°19'2814.0
2016-May-27 07:33N 37°58' E 016°42'39311.2
2016-May-25 20:21N 44°03' E 013°30'1114.0
2016-May-25 19:34N 44°09' E 013°17'1414.0
2016-May-25 18:33N 44°17' E 013°01'1413.8
2016-May-25 17:33N 44°24' E 012°44'1413.6
2016-May-25 16:33N 44°30' E 012°27'8 7.9
2016-May-25 15:29N 44°28' E 012°15'1 0.0
2016-May-24 21:29N 44°27' E 012°15'0 0.0
2016-May-24 20:17N 44°27' E 012°15'0 0.0
2016-May-24 17:14N 44°27' E 012°15'0 0.0
2016-May-24 16:26N 44°27' E 012°15'  
2016-May-19 02:11N 37°13' E 023°36'914.2
2016-May-19 01:31N 37°22' E 023°38'1413.8
2016-May-19 00:32N 37°35' E 023°43'1313.5
2016-May-18 23:34N 37°47' E 023°37'6 5.7
2016-May-18 22:32N 37°51' E 023°32'0 0.0
2016-May-18 21:32N 37°51' E 023°32'0 0.0
2016-May-18 20:32N 37°51' E 023°32'0 0.0
2016-May-18 19:33N 37°51' E 023°32'0 0.0
2016-May-18 18:32N 37°51' E 023°32'0 0.1
2016-May-18 17:32N 37°51' E 023°32'6 5.7
2016-May-18 16:33N 37°51' E 023°39'1413.6
2016-May-18 15:33N 37°38' E 023°46'1514.1
2016-May-18 14:30N 37°24' E 023°52'  
Track history (hours):
 
Tides and Currents Weather Stations Pressure Air Temp Water Temp Dewpoint Dewpoint Depression Visibility Wind Speed Wind Dir Waves Ship Positions

Crystal Island

Last reported at 2016-May-27 17:34 UTC. Time now 2016-May-27 18:13 UTC.
Position N 36°27' E 014°38'.

Length 169 m; draft 7.4 m.

Type: Ship. MMSI: 372562000.

Date/timePositionNaut miles runAvg speedWind from/ knotsBaromVisibWave heightAir tempDewpointWater temp
2016-May-27 17:34N 36°27' E 014°38'1413.6
2016-May-27 16:34N 36°30' E 014°54'1414.0
2016-May-27 15:33N 36°37' E 015°09'1414.4
2016-May-27 14:33N 36°44' E 015°25'1413.6
2016-May-27 13:33N 36°55' E 015°36'1313.5
2016-May-27 12:33N 37°05' E 015°46'1413.6
2016-May-27 11:33N 37°15' E 015°57'2713.5
2016-May-27 09:32N 37°36' E 016°19'2814.0
2016-May-27 07:33N 37°58' E 016°42'39311.2
2016-May-25 20:21N 44°03' E 013°30'1114.0
2016-May-25 19:34N 44°09' E 013°17'1414.0
2016-May-25 18:33N 44°17' E 013°01'1413.8
2016-May-25 17:33N 44°24' E 012°44'1413.6
2016-May-25 16:33N 44°30' E 012°27'8 7.9
2016-May-25 15:29N 44°28' E 012°15'1 0.0
2016-May-24 21:29N 44°27' E 012°15'0 0.0
2016-May-24 20:17N 44°27' E 012°15'0 0.0
2016-May-24 17:14N 44°27' E 012°15'0 0.0
2016-May-24 16:26N 44°27' E 012°15'  
2016-May-19 02:11N 37°13' E 023°36'914.2
2016-May-19 01:31N 37°22' E 023°38'1413.8
2016-May-19 00:32N 37°35' E 023°43'1313.5
2016-May-18 23:34N 37°47' E 023°37'6 5.7
2016-May-18 22:32N 37°51' E 023°32'0 0.0
2016-May-18 21:32N 37°51' E 023°32'0 0.0
2016-May-18 20:32N 37°51' E 023°32'0 0.0
2016-May-18 19:33N 37°51' E 023°32'0 0.0
2016-May-18 18:32N 37°51' E 023°32'0 0.1
2016-May-18 17:32N 37°51' E 023°32'6 5.7
2016-May-18 16:33N 37°51' E 023°39'1413.6
2016-May-18 15:33N 37°38' E 023°46'1514.1
2016-May-18 14:30N 37°24' E 023°52'  

Dump ship's entire track history